Time;durP1;ratioP1;P1;durP2;ratioP2;P2;SDS_P1;SDS_P2;PMS_P1;PMS_P2;Temp;Humidity;BMP_temperature;BMP_pressure;BME280_temperature;BME280_humidity;BME280_pressure;Samples;Min_cycle;Max_cycle;Signal;HPM_P1;HPM_P2
2023/04/06 00:01:10;;;;;;;36.38;26.02;;;2.20;99.90;;;;;;5062612;28;20699;-72
2023/04/06 00:03:36;;;;;;;30.75;24.58;;;2.20;99.90;;;;;;5068133;28;20525;-72
2023/04/06 00:06:02;;;;;;;36.83;23.58;;;2.20;99.90;;;;;;5066380;28;20454;-72
2023/04/06 00:08:28;;;;;;;33.80;25.52;;;2.20;99.90;;;;;;5066511;28;20076;-72
2023/04/06 00:10:55;;;;;;;41.05;25.17;;;2.20;99.90;;;;;;5064825;28;20058;-72
2023/04/06 00:13:21;;;;;;;34.63;24.25;;;2.20;99.90;;;;;;5061607;28;20405;-72
2023/04/06 00:15:47;;;;;;;33.13;24.70;;;2.20;99.90;;;;;;5059531;28;20056;-72
2023/04/06 00:18:12;;;;;;;30.67;22.65;;;2.10;99.90;;;;;;5063536;28;20040;-72
2023/04/06 00:20:38;;;;;;;38.58;23.17;;;2.10;99.90;;;;;;5066124;28;20093;-72
2023/04/06 00:23:04;;;;;;;41.70;26.10;;;2.10;99.90;;;;;;5037515;28;20056;-72
2023/04/06 00:25:30;;;;;;;31.60;24.50;;;2.10;99.90;;;;;;5058915;28;20131;-72
2023/04/06 00:27:55;;;;;;;32.95;24.38;;;2.00;99.90;;;;;;5063919;28;20129;-72
2023/04/06 00:30:21;;;;;;;34.72;22.83;;;2.00;99.90;;;;;;5066373;28;20052;-72
2023/04/06 00:32:47;;;;;;;36.97;23.83;;;2.00;99.90;;;;;;5058353;28;20149;-72
2023/04/06 00:35:14;;;;;;;36.20;22.25;;;1.90;99.90;;;;;;5064741;28;20051;-72
2023/04/06 00:37:40;;;;;;;34.33;23.90;;;1.90;99.90;;;;;;5068010;28;20059;-72
2023/04/06 00:40:07;;;;;;;30.88;23.58;;;1.90;99.90;;;;;;5061932;28;20036;-72
2023/04/06 00:42:32;;;;;;;34.20;22.80;;;1.90;99.90;;;;;;5063414;28;20040;-72
2023/04/06 00:45:00;;;;;;;28.98;21.70;;;1.80;99.90;;;;;;5055002;28;20051;-72
2023/04/06 00:47:26;;;;;;;33.28;23.50;;;1.80;99.90;;;;;;5064972;28;20073;-72
2023/04/06 00:49:53;;;;;;;37.70;23.17;;;1.70;99.90;;;;;;5063304;28;20418;-72
2023/04/06 00:52:19;;;;;;;34.25;23.42;;;1.80;99.90;;;;;;5065888;28;20199;-72
2023/04/06 00:54:46;;;;;;;33.35;23.42;;;1.70;99.90;;;;;;5064636;28;20059;-72
2023/04/06 00:57:13;;;;;;;30.38;22.08;;;1.70;99.90;;;;;;5046338;28;20688;-72
2023/04/06 00:59:40;;;;;;;44.45;23.38;;;1.70;99.90;;;;;;5063288;28;20097;-72
2023/04/06 01:02:06;;;;;;;36.13;22.58;;;1.70;99.90;;;;;;5065257;28;20068;-72
2023/04/06 01:04:32;;;;;;;30.20;21.55;;;1.70;99.90;;;;;;5064788;28;20083;-72
2023/04/06 01:06:58;;;;;;;28.55;21.60;;;1.60;99.90;;;;;;5061959;28;20630;-72
2023/04/06 01:09:23;;;;;;;39.78;23.77;;;1.60;99.90;;;;;;5063632;28;20048;-72
2023/04/06 01:11:49;;;;;;;31.63;22.63;;;1.60;99.90;;;;;;5061671;28;20052;-72
2023/04/06 01:14:15;;;;;;;28.45;20.30;;;1.50;99.90;;;;;;5059401;28;20051;-72
2023/04/06 01:16:41;;;;;;;31.48;22.15;;;1.50;99.90;;;;;;5061151;28;20055;-72
2023/04/06 01:19:13;;;;;;;32.38;23.58;;;1.50;99.90;;;;;;5063540;28;20053;-72
2023/04/06 01:21:40;;;;;;;29.63;20.02;;;1.50;99.90;;;;;;5065255;28;20803;-72
2023/04/06 01:24:07;;;;;;;33.15;21.90;;;1.40;99.90;;;;;;5063722;28;20132;-72
2023/04/06 01:26:33;;;;;;;37.60;21.65;;;1.40;99.90;;;;;;5063113;28;20040;-72
2023/04/06 01:29:00;;;;;;;33.95;23.35;;;1.30;99.90;;;;;;5066840;28;20046;-72
2023/04/06 01:31:26;;;;;;;31.30;21.98;;;1.30;99.90;;;;;;5066312;28;20063;-72
2023/04/06 01:33:52;;;;;;;30.75;22.15;;;1.20;99.90;;;;;;5061719;28;20037;-72
2023/04/06 01:36:18;;;;;;;29.45;21.17;;;1.20;99.90;;;;;;5066829;28;20052;-72
2023/04/06 01:38:45;;;;;;;28.52;20.92;;;1.20;99.90;;;;;;5064672;28;20049;-72
2023/04/06 01:41:11;;;;;;;29.73;21.65;;;1.20;99.90;;;;;;5060360;28;20567;-72
2023/04/06 01:43:37;;;;;;;39.08;23.90;;;1.10;99.90;;;;;;5057118;28;20044;-72
2023/04/06 01:46:03;;;;;;;29.38;22.13;;;1.10;99.90;;;;;;5064661;28;20040;-72
2023/04/06 01:48:29;;;;;;;27.42;22.67;;;1.10;99.90;;;;;;5065214;28;20036;-72
2023/04/06 01:50:55;;;;;;;36.10;23.60;;;1.10;99.90;;;;;;5063592;28;20497;-72
2023/04/06 01:53:21;;;;;;;31.52;21.85;;;1.00;99.90;;;;;;5055047;28;20056;-72
2023/04/06 01:55:47;;;;;;;34.83;23.20;;;1.00;99.90;;;;;;5054536;28;20045;-72
2023/04/06 01:58:13;;;;;;;37.63;24.75;;;0.90;99.90;;;;;;5057298;28;20117;-72
2023/04/06 02:00:40;;;;;;;33.22;24.77;;;0.90;99.90;;;;;;5064837;28;20493;-72
2023/04/06 02:03:06;;;;;;;31.83;22.60;;;0.90;99.90;;;;;;5064061;28;20063;-72
2023/04/06 02:05:37;;;;;;;28.00;22.70;;;0.90;99.90;;;;;;5061880;28;20048;-72
2023/04/06 02:08:06;;;;;;;30.35;22.88;;;0.90;99.90;;;;;;5062883;28;20048;-72
2023/04/06 02:10:33;;;;;;;38.22;24.42;;;0.80;99.90;;;;;;5054940;28;20472;-72
2023/04/06 02:12:58;;;;;;;30.90;22.23;;;0.80;99.90;;;;;;5064676;28;20131;-72
2023/04/06 02:15:25;;;;;;;30.00;21.42;;;0.70;99.90;;;;;;5063049;28;20048;-72
2023/04/06 02:17:51;;;;;;;35.85;21.00;;;0.70;99.90;;;;;;5063993;28;20048;-72
2023/04/06 02:20:17;;;;;;;32.33;21.65;;;0.70;99.90;;;;;;5061140;28;20402;-72
2023/04/06 02:22:42;;;;;;;29.60;22.42;;;0.60;99.90;;;;;;5065998;28;20182;-72
2023/04/06 02:25:08;;;;;;;31.83;23.13;;;0.60;99.90;;;;;;5059707;28;20071;-72
2023/04/06 02:27:35;;;;;;;29.23;21.45;;;0.60;99.90;;;;;;5062512;28;20040;-72
2023/04/06 02:30:00;;;;;;;30.88;23.88;;;0.60;99.90;;;;;;5061056;28;20522;-72
2023/04/06 02:32:26;;;;;;;34.30;22.70;;;0.60;99.90;;;;;;5062928;28;20075;-72
2023/04/06 02:34:55;;;;;;;31.20;22.85;;;0.60;99.90;;;;;;5063640;28;20056;-72
2023/04/06 02:37:21;;;;;;;34.67;23.20;;;0.50;99.90;;;;;;5062659;28;20145;-72
2023/04/06 02:39:47;;;;;;;29.90;23.52;;;0.60;99.90;;;;;;5067430;28;20080;-72
2023/04/06 02:42:14;;;;;;;29.73;22.27;;;0.60;99.90;;;;;;5063019;28;20072;-72
2023/04/06 02:44:41;;;;;;;37.53;24.95;;;0.50;99.90;;;;;;5068007;28;20059;-72
2023/04/06 02:47:06;;;;;;;33.75;22.98;;;0.50;99.90;;;;;;5068129;28;20040;-72
2023/04/06 02:49:32;;;;;;;26.27;21.73;;;0.50;99.90;;;;;;5061427;28;20561;-71
2023/04/06 02:51:58;;;;;;;30.30;21.00;;;0.50;99.90;;;;;;5066754;28;20045;-72
2023/04/06 02:54:23;;;;;;;27.13;21.65;;;0.40;99.90;;;;;;5069825;28;20048;-72
2023/04/06 02:56:49;;;;;;;29.90;22.48;;;0.40;99.90;;;;;;5065285;28;20053;-72
2023/04/06 02:59:15;;;;;;;30.35;21.02;;;0.30;99.90;;;;;;5062964;28;20051;-71
2023/04/06 03:01:40;;;;;;;27.15;21.60;;;0.30;99.90;;;;;;5067656;28;20417;-72
2023/04/06 03:04:06;;;;;;;30.95;22.67;;;0.30;99.90;;;;;;5069569;28;20083;-71
2023/04/06 03:06:33;;;;;;;35.03;22.23;;;0.30;99.90;;;;;;5055214;28;20076;-72
2023/04/06 03:08:58;;;;;;;28.42;22.40;;;0.30;99.90;;;;;;5065795;28;20107;-71
2023/04/06 03:11:26;;;;;;;31.40;22.63;;;0.20;99.90;;;;;;5048269;28;20521;-71
2023/04/06 03:13:52;;;;;;;30.10;23.92;;;0.20;99.90;;;;;;5061426;28;20049;-71
2023/04/06 03:16:18;;;;;;;32.47;23.40;;;0.20;99.90;;;;;;5065714;28;20735;-71
2023/04/06 03:18:47;;;;;;;30.77;20.85;;;0.20;99.90;;;;;;5065166;28;20554;-71
2023/04/06 03:21:15;;;;;;;28.80;20.30;;;0.20;99.90;;;;;;5067038;28;20056;-71
2023/04/06 03:23:41;;;;;;;27.98;22.25;;;0.20;99.90;;;;;;5066942;28;20049;-72
2023/04/06 03:26:07;;;;;;;32.70;21.88;;;0.20;99.90;;;;;;5062455;28;20135;-71
2023/04/06 03:28:32;;;;;;;27.95;20.88;;;0.10;99.90;;;;;;5067218;28;20037;-71
2023/04/06 03:30:58;;;;;;;28.83;20.58;;;0.10;99.90;;;;;;5064207;28;20382;-71
2023/04/06 03:33:26;;;;;;;28.17;20.92;;;0.10;99.90;;;;;;5065751;28;20048;-71
2023/04/06 03:35:52;;;;;;;36.28;20.00;;;0.10;99.90;;;;;;5066698;28;20053;-71
2023/04/06 03:38:18;;;;;;;25.10;20.38;;;-0.10;99.90;;;;;;5063834;28;20123;-71
2023/04/06 03:40:44;;;;;;;27.08;18.58;;;-0.20;99.90;;;;;;5066971;28;20119;-71
2023/04/06 03:43:10;;;;;;;22.95;18.02;;;-0.20;99.90;;;;;;5064312;28;20052;-71
2023/04/06 03:45:35;;;;;;;25.45;19.38;;;-0.20;99.90;;;;;;5056785;28;20131;-70
2023/04/06 03:48:01;;;;;;;23.52;18.95;;;-0.20;99.90;;;;;;5058192;28;20449;-71
2023/04/06 03:50:26;;;;;;;24.15;19.83;;;-0.30;99.90;;;;;;5063586;28;20044;-70
2023/04/06 03:52:52;;;;;;;24.67;18.17;;;-0.20;99.90;;;;;;5067026;28;20084;-71
2023/04/06 03:55:18;;;;;;;25.92;18.42;;;-0.30;99.90;;;;;;5067482;28;20734;-71
2023/04/06 03:57:43;;;;;;;21.77;18.25;;;-0.30;99.90;;;;;;5058528;28;20090;-71
2023/04/06 04:00:10;;;;;;;23.20;18.88;;;-0.30;99.90;;;;;;5066928;28;20563;-71
2023/04/06 04:02:35;;;;;;;28.77;21.15;;;-0.30;99.90;;;;;;5063728;28;20607;-71
2023/04/06 04:05:01;;;;;;;28.17;20.73;;;-0.40;99.90;;;;;;5064785;28;20119;-70
2023/04/06 04:07:26;;;;;;;27.25;21.25;;;-0.40;99.90;;;;;;5056876;28;20045;-71
2023/04/06 04:09:52;;;;;;;29.60;21.70;;;-0.40;99.90;;;;;;5052565;28;20709;-71
2023/04/06 04:12:18;;;;;;;28.83;21.27;;;-0.40;99.90;;;;;;5064412;28;20509;-71
2023/04/06 04:14:44;;;;;;;30.17;21.10;;;-0.40;99.90;;;;;;5064295;28;20052;-71
2023/04/06 04:17:10;;;;;;;27.42;21.77;;;-0.50;99.90;;;;;;5055828;28;20508;-71
2023/04/06 04:19:36;;;;;;;25.58;21.77;;;-0.50;99.90;;;;;;5064889;28;20058;-71
2023/04/06 04:22:04;;;;;;;26.85;20.58;;;-0.50;99.90;;;;;;5062541;28;20075;-71
2023/04/06 04:24:30;;;;;;;27.20;20.63;;;-0.50;99.90;;;;;;5067058;28;20513;-71
2023/04/06 04:26:56;;;;;;;26.25;19.25;;;-0.50;99.90;;;;;;5060317;28;20075;-71
2023/04/06 04:29:22;;;;;;;28.42;20.67;;;-0.60;99.90;;;;;;5062235;28;20645;-71
2023/04/06 04:31:50;;;;;;;27.75;19.23;;;-0.50;99.90;;;;;;5064414;28;20112;-71
2023/04/06 04:34:16;;;;;;;25.40;19.20;;;-0.50;99.90;;;;;;5055460;28;20120;-71
2023/04/06 04:36:42;;;;;;;23.67;19.05;;;-0.50;99.90;;;;;;5064047;28;20055;-71
2023/04/06 04:39:08;;;;;;;23.98;19.95;;;-0.50;99.90;;;;;;5065678;28;20680;-71
2023/04/06 04:41:33;;;;;;;33.83;21.55;;;-0.50;99.90;;;;;;5065992;28;20087;-71
2023/04/06 04:43:59;;;;;;;29.02;21.00;;;-0.50;99.90;;;;;;5066640;28;20053;-70
2023/04/06 04:46:25;;;;;;;31.05;21.27;;;-0.60;99.90;;;;;;5061133;28;20033;-70
2023/04/06 04:48:51;;;;;;;29.10;21.35;;;-0.60;99.90;;;;;;5060054;28;20093;-71
2023/04/06 04:51:16;;;;;;;27.88;20.75;;;-0.60;99.90;;;;;;5065594;28;20044;-70
2023/04/06 04:53:42;;;;;;;27.77;20.90;;;-0.60;99.90;;;;;;5060667;28;20460;-71
2023/04/06 04:56:09;;;;;;;23.52;19.08;;;-0.60;99.90;;;;;;5065791;28;20043;-71
2023/04/06 04:58:35;;;;;;;28.30;19.90;;;-0.60;99.90;;;;;;5044103;28;20055;-71
2023/04/06 05:01:01;;;;;;;25.15;20.25;;;-0.60;99.90;;;;;;5061478;28;20049;-70
2023/04/06 05:03:27;;;;;;;27.52;20.52;;;-0.60;99.90;;;;;;5066167;28;20052;-70
2023/04/06 05:05:52;;;;;;;25.98;21.13;;;-0.50;99.90;;;;;;5065566;28;20052;-70
2023/04/06 05:08:18;;;;;;;23.25;20.58;;;-0.50;99.90;;;;;;5062841;28;20045;-70
2023/04/06 05:10:46;;;;;;;27.08;20.85;;;-0.30;99.90;;;;;;5062521;28;20057;-70
2023/04/06 05:13:12;;;;;;;20.92;18.67;;;-0.20;99.90;;;;;;5065371;28;20570;-70
2023/04/06 05:15:38;;;;;;;19.85;17.73;;;0.00;99.90;;;;;;5064670;28;20040;-70
2023/04/06 05:18:10;;;;;;;27.63;20.40;;;0.30;99.90;;;;;;5060717;28;20032;-70
2023/04/06 05:20:37;;;;;;;23.88;20.02;;;0.70;99.90;;;;;;5067552;28;20056;-70
2023/04/06 05:23:03;;;;;;;23.17;19.77;;;1.10;99.90;;;;;;5065557;28;20044;-71
2023/04/06 05:25:30;;;;;;;25.40;20.10;;;1.50;99.90;;;;;;5060534;28;20044;-70
2023/04/06 05:27:56;;;;;;;24.13;19.23;;;1.90;99.90;;;;;;5063705;28;20056;-70
2023/04/06 05:30:22;;;;;;;24.98;21.38;;;2.20;99.90;;;;;;5064933;28;20097;-71
2023/04/06 05:32:49;;;;;;;30.75;20.27;;;2.70;99.90;;;;;;5064904;28;20052;-72
2023/04/06 05:35:15;;;;;;;26.80;19.65;;;3.00;99.90;;;;;;5063796;28;20563;-72
2023/04/06 05:37:42;;;;;;;26.42;20.27;;;3.30;99.90;;;;;;5065341;28;20044;-72
2023/04/06 05:40:08;;;;;;;24.75;18.73;;;3.60;99.90;;;;;;5059821;28;20074;-72
2023/04/06 05:42:38;;;;;;;21.38;19.08;;;3.80;99.90;;;;;;5063245;28;20417;-72
2023/04/06 05:45:05;;;;;;;22.90;18.48;;;3.40;99.90;;;;;;5061290;28;20049;-72
2023/04/06 05:47:31;;;;;;;24.80;18.17;;;3.30;99.90;;;;;;5066013;28;20093;-72
2023/04/06 05:49:56;;;;;;;20.63;18.17;;;3.40;99.90;;;;;;5062203;28;20056;-73
2023/04/06 05:52:22;;;;;;;20.80;18.10;;;3.50;99.90;;;;;;5065550;28;20052;-72
2023/04/06 05:54:48;;;;;;;21.30;17.10;;;4.00;99.90;;;;;;5064515;28;20051;-72
2023/04/06 05:57:13;;;;;;;23.38;20.15;;;4.20;99.90;;;;;;5064243;28;20343;-72
2023/04/06 05:59:39;;;;;;;28.55;18.42;;;4.60;99.90;;;;;;5064269;28;20128;-72
2023/04/06 06:02:05;;;;;;;23.95;18.85;;;5.00;99.90;;;;;;5064695;28;20080;-72
2023/04/06 06:04:30;;;;;;;21.65;18.50;;;5.40;99.90;;;;;;5064428;28;20087;-72
2023/04/06 06:06:56;;;;;;;24.90;19.38;;;5.80;99.90;;;;;;5064226;28;20053;-72
2023/04/06 06:09:22;;;;;;;20.52;18.15;;;5.90;99.90;;;;;;5064594;28;20051;-72
2023/04/06 06:11:48;;;;;;;21.77;19.52;;;6.00;99.90;;;;;;5069325;28;20048;-71
2023/04/06 06:14:15;;;;;;;21.83;19.02;;;5.90;99.90;;;;;;5059050;28;20400;-72
2023/04/06 06:16:40;;;;;;;24.55;19.10;;;5.70;99.90;;;;;;5067036;28;20052;-72
2023/04/06 06:19:06;;;;;;;18.52;16.17;;;5.70;99.90;;;;;;5065547;28;20575;-72
2023/04/06 06:21:32;;;;;;;22.90;17.35;;;5.90;99.90;;;;;;5063329;28;20080;-72
2023/04/06 06:23:57;;;;;;;24.42;18.98;;;6.10;99.90;;;;;;5064257;28;20053;-72
2023/04/06 06:26:23;;;;;;;20.65;17.58;;;6.00;99.90;;;;;;5049639;28;20040;-72
2023/04/06 06:28:50;;;;;;;20.75;17.60;;;5.80;99.90;;;;;;5060444;28;20056;-72
2023/04/06 06:31:16;;;;;;;20.48;18.35;;;5.60;99.90;;;;;;5068962;28;20045;-72
2023/04/06 06:33:44;;;;;;;20.80;18.42;;;5.40;99.90;;;;;;5065872;28;20048;-72
2023/04/06 06:36:10;;;;;;;21.52;18.45;;;5.30;99.90;;;;;;5060210;28;20119;-72
2023/04/06 06:38:36;;;;;;;20.88;18.60;;;5.30;99.90;;;;;;5062903;28;20135;-72
2023/04/06 06:41:01;;;;;;;24.75;18.85;;;5.10;99.90;;;;;;5063121;28;20048;-72
2023/04/06 06:43:27;;;;;;;20.73;17.35;;;4.90;99.90;;;;;;5065587;28;20048;-72
2023/04/06 06:45:53;;;;;;;23.70;19.40;;;4.70;99.90;;;;;;5068627;28;20517;-72
2023/04/06 06:48:18;;;;;;;21.90;19.60;;;4.50;99.90;;;;;;5063835;28;20612;-73
2023/04/06 06:50:44;;;;;;;21.23;18.85;;;4.40;99.90;;;;;;5061601;28;20056;-72
2023/04/06 06:53:10;;;;;;;21.25;19.08;;;4.40;99.90;;;;;;5057866;28;20049;-72
2023/04/06 06:55:36;;;;;;;28.00;20.88;;;4.60;99.90;;;;;;5067409;28;20052;-73
2023/04/06 06:58:02;;;;;;;22.50;18.77;;;4.70;99.90;;;;;;5060803;28;20111;-73
2023/04/06 07:00:27;;;;;;;24.00;18.65;;;4.90;99.90;;;;;;5065338;28;20528;-72
2023/04/06 07:02:53;;;;;;;25.77;19.25;;;5.10;99.90;;;;;;5067662;28;20045;-73
2023/04/06 07:05:18;;;;;;;23.50;19.10;;;5.30;99.90;;;;;;5060334;28;20052;-73
2023/04/06 07:07:44;;;;;;;26.48;19.33;;;5.50;99.90;;;;;;5063661;28;20498;-73
2023/04/06 07:10:10;;;;;;;20.00;17.77;;;5.60;99.90;;;;;;5047778;28;20118;-73
2023/04/06 07:12:36;;;;;;;24.17;19.63;;;5.70;99.90;;;;;;5058297;28;20374;-73
2023/04/06 07:15:01;;;;;;;20.08;17.80;;;5.80;99.90;;;;;;5064855;28;20052;-73
2023/04/06 07:17:27;;;;;;;21.35;19.20;;;5.90;99.90;;;;;;5049767;28;20036;-73
2023/04/06 07:19:53;;;;;;;21.50;19.38;;;6.00;99.90;;;;;;5066580;28;20110;-73
2023/04/06 07:22:18;;;;;;;20.25;17.67;;;6.10;99.90;;;;;;5064782;28;20079;-73
2023/04/06 07:24:44;;;;;;;28.90;21.67;;;6.20;99.90;;;;;;5063338;28;20056;-73
2023/04/06 07:27:10;;;;;;;25.88;19.25;;;6.40;99.90;;;;;;5059477;28;20506;-73
2023/04/06 07:29:35;;;;;;;21.17;18.90;;;6.60;99.90;;;;;;5065895;28;20643;-73
2023/04/06 07:32:01;;;;;;;21.40;17.55;;;6.80;99.90;;;;;;5063567;28;20118;-73
2023/04/06 07:34:27;;;;;;;23.40;19.77;;;6.90;99.90;;;;;;5059554;28;20105;-73
2023/04/06 07:36:54;;;;;;;24.70;20.67;;;7.10;99.90;;;;;;5066875;28;20632;-74
2023/04/06 07:39:20;;;;;;;23.50;19.30;;;7.20;99.90;;;;;;5067260;28;20048;-73
2023/04/06 07:41:45;;;;;;;21.95;19.48;;;7.20;99.90;;;;;;5053132;28;20053;-73
2023/04/06 07:44:11;;;;;;;24.35;19.45;;;7.20;99.90;;;;;;5065301;28;20046;-73
2023/04/06 07:46:37;;;;;;;22.45;20.08;;;7.30;99.90;;;;;;5064846;28;20405;-72
2023/04/06 07:49:03;;;;;;;26.50;19.73;;;7.50;99.90;;;;;;5067055;28;20044;-74
2023/04/06 07:51:30;;;;;;;26.52;18.75;;;7.60;99.90;;;;;;5063902;28;20440;-74
2023/04/06 07:53:56;;;;;;;25.30;19.95;;;7.70;99.90;;;;;;5054232;28;20246;-74
2023/04/06 07:56:23;;;;;;;22.75;19.73;;;7.90;99.90;;;;;;5065896;28;20127;-74
2023/04/06 07:58:48;;;;;;;23.90;20.38;;;8.10;99.90;;;;;;5058285;28;20547;-74
2023/04/06 08:01:14;;;;;;;24.05;20.67;;;8.20;99.90;;;;;;5065934;28;20086;-74
2023/04/06 08:03:40;;;;;;;21.40;19.10;;;8.30;99.90;;;;;;5066145;28;20067;-74
2023/04/06 08:06:05;;;;;;;23.75;20.80;;;8.40;99.90;;;;;;5067371;28;20056;-75
2023/04/06 08:08:32;;;;;;;24.35;21.27;;;8.50;99.90;;;;;;5057439;28;20451;-74
2023/04/06 08:10:57;;;;;;;21.65;19.30;;;8.60;99.90;;;;;;5068812;28;20090;-74
2023/04/06 08:13:23;;;;;;;28.73;22.10;;;8.60;99.90;;;;;;5063201;28;20576;-74
2023/04/06 08:15:49;;;;;;;24.92;20.95;;;8.70;99.90;;;;;;5059595;28;20827;-74
2023/04/06 08:18:14;;;;;;;23.70;19.63;;;8.80;99.90;;;;;;5064035;28;20070;-74
2023/04/06 08:20:41;;;;;;;24.02;20.65;;;8.90;99.90;;;;;;5065288;28;20604;-74
2023/04/06 08:23:09;;;;;;;27.67;20.63;;;9.00;99.90;;;;;;5055621;28;20139;-74
2023/04/06 08:25:35;;;;;;;24.17;20.55;;;9.20;99.90;;;;;;5055129;28;20072;-74
2023/04/06 08:28:02;;;;;;;26.02;19.23;;;9.30;99.90;;;;;;5057896;28;20116;-74
2023/04/06 08:30:27;;;;;;;28.55;20.17;;;9.40;99.90;;;;;;5058973;28;20052;-74
2023/04/06 08:32:53;;;;;;;25.00;20.48;;;9.50;99.90;;;;;;5054930;28;20045;-74
2023/04/06 08:35:19;;;;;;;27.63;22.15;;;9.50;99.90;;;;;;5063974;28;20726;-74
2023/04/06 08:37:46;;;;;;;23.60;20.90;;;9.70;99.90;;;;;;5060079;28;20070;-74
2023/04/06 08:40:12;;;;;;;23.83;21.27;;;9.70;99.90;;;;;;5059986;28;20504;-74
2023/04/06 08:42:51;;;;;;;21.55;18.77;;;9.90;99.90;;;;;;5065662;28;20037;-74
2023/04/06 08:45:20;;;;;;;27.02;20.58;;;10.00;99.90;;;;;;5060955;28;20049;-75
2023/04/06 08:47:50;;;;;;;27.00;20.60;;;10.00;99.90;;;;;;5065203;28;20180;-74
2023/04/06 08:50:17;;;;;;;29.67;19.50;;;10.20;99.90;;;;;;5056086;28;20143;-74
2023/04/06 08:52:47;;;;;;;25.75;21.17;;;10.30;94.50;;;;;;5067016;28;20086;-74
2023/04/06 08:55:14;;;;;;;26.63;21.10;;;10.40;92.70;;;;;;5065772;28;20494;-74
2023/04/06 08:57:41;;;;;;;31.98;21.08;;;10.60;91.10;;;;;;5062008;28;20265;-75
2023/04/06 09:00:09;;;;;;;57.53;26.33;;;10.70;83.60;;;;;;5067047;28;20524;-74
2023/04/06 09:02:41;;;;;;;28.85;22.02;;;10.80;83.70;;;;;;5050270;28;20053;-74
2023/04/06 09:05:09;;;;;;;30.60;21.63;;;10.90;87.50;;;;;;5056472;28;20497;-74
2023/04/06 09:07:36;;;;;;;28.13;21.48;;;11.10;80.90;;;;;;5056819;28;20118;-74
2023/04/06 09:10:02;;;;;;;32.33;21.00;;;11.20;79.10;;;;;;5053617;28;20125;-74
2023/04/06 09:12:30;;;;;;;27.50;20.83;;;11.40;75.20;;;;;;5060641;28;20060;-75
2023/04/06 09:14:56;;;;;;;25.60;21.85;;;11.50;75.70;;;;;;5051932;28;20059;-74
2023/04/06 09:17:32;;;;;;;29.33;21.27;;;11.50;73.70;;;;;;5055290;28;20527;-74
2023/04/06 09:19:59;;;;;;;75.30;25.73;;;11.50;72.00;;;;;;5055592;28;20052;-75
2023/04/06 09:22:26;;;;;;;34.92;22.90;;;11.60;74.10;;;;;;5065597;28;20040;-74
2023/04/06 09:24:53;;;;;;;25.60;21.27;;;11.70;73.10;;;;;;5069660;28;20048;-74
2023/04/06 09:27:36;;;;;;;33.20;24.00;;;11.90;72.10;;;;;;5058503;28;20045;-74
2023/04/06 09:30:09;;;;;;;35.83;22.05;;;12.00;72.30;;;;;;5064614;28;20550;-74
2023/04/06 09:32:48;;;;;;;27.63;20.55;;;12.20;70.60;;;;;;5060147;28;20045;-74
2023/04/06 09:35:15;;;;;;;27.85;20.05;;;12.30;68.00;;;;;;5050550;28;20136;-74
2023/04/06 09:37:41;;;;;;;59.58;26.83;;;12.40;67.00;;;;;;5054940;28;20056;-74
2023/04/06 09:40:07;;;;;;;41.05;21.80;;;12.60;66.70;;;;;;5054123;28;20050;-74
2023/04/06 09:42:34;;;;;;;31.02;22.08;;;12.70;67.10;;;;;;5065591;28;20105;-74
2023/04/06 09:45:03;;;;;;;26.35;21.70;;;12.80;66.10;;;;;;5061157;28;20048;-75
2023/04/06 09:47:32;;;;;;;28.30;21.77;;;12.80;65.80;;;;;;5063454;28;20084;-74
2023/04/06 09:49:59;;;;;;;30.85;21.85;;;12.80;64.40;;;;;;5066581;28;20136;-74
2023/04/06 09:52:33;;;;;;;33.85;22.10;;;12.70;64.00;;;;;;5060981;28;20127;-74
2023/04/06 09:55:04;;;;;;;32.70;22.70;;;12.70;63.10;;;;;;5065473;28;20044;-74
2023/04/06 09:57:40;;;;;;;33.95;23.85;;;12.70;63.20;;;;;;5070759;28;20076;-75
2023/04/06 10:00:11;;;;;;;26.90;21.73;;;12.70;62.00;;;;;;5068792;28;20048;-75
2023/04/06 10:03:03;;;;;;;34.97;24.35;;;12.60;62.80;;;;;;5062450;28;20123;-75
2023/04/06 10:05:37;;;;;;;35.00;22.85;;;12.50;63.80;;;;;;5069308;28;20055;-74
2023/04/06 10:08:08;;;;;;;33.75;24.67;;;12.40;64.40;;;;;;5066921;28;20055;-74
2023/04/06 10:10:34;;;;;;;39.80;25.08;;;12.50;63.60;;;;;;5068047;28;20090;-75
2023/04/06 10:13:00;;;;;;;44.92;28.25;;;12.40;62.90;;;;;;5065559;28;20146;-74
2023/04/06 10:15:30;;;;;;;30.08;23.90;;;12.60;63.30;;;;;;5060268;28;20040;-74
2023/04/06 10:17:59;;;;;;;44.70;27.15;;;12.60;62.30;;;;;;5070701;28;20041;-74
2023/04/06 10:20:41;;;;;;;36.20;27.52;;;12.70;61.00;;;;;;5064566;28;20032;-74
2023/04/06 10:23:19;;;;;;;45.42;28.40;;;12.80;60.70;;;;;;5067112;28;20850;-74
2023/04/06 10:25:56;;;;;;;38.95;28.77;;;12.80;61.50;;;;;;5057913;28;20053;-74
2023/04/06 10:28:23;;;;;;;34.03;25.57;;;12.90;60.40;;;;;;5065564;28;20505;-75
2023/04/06 10:30:48;;;;;;;42.45;29.27;;;13.00;60.50;;;;;;5062543;28;20072;-74
2023/04/06 10:33:16;;;;;;;41.78;28.92;;;13.10;60.40;;;;;;5058506;28;20083;-75
2023/04/06 10:35:41;;;;;;;44.90;29.65;;;13.20;59.10;;;;;;5065576;28;20468;-74
2023/04/06 10:38:07;;;;;;;42.10;30.00;;;13.30;58.90;;;;;;5060205;28;20132;-74
2023/04/06 10:40:37;;;;;;;41.47;30.45;;;13.40;58.50;;;;;;5061197;28;20136;-75
2023/04/06 10:43:17;;;;;;;43.10;31.23;;;13.40;57.80;;;;;;5061881;28;20045;-75
2023/04/06 10:45:44;;;;;;;44.20;31.45;;;13.50;56.60;;;;;;5055084;28;20044;-75
2023/04/06 10:48:15;;;;;;;39.45;31.40;;;13.50;56.50;;;;;;5057197;28;20049;-75
2023/04/06 10:50:43;;;;;;;41.72;30.50;;;13.40;55.40;;;;;;5063888;28;20425;-74
2023/04/06 10:53:09;;;;;;;49.00;31.98;;;13.40;55.90;;;;;;5061793;28;20036;-75
2023/04/06 10:55:39;;;;;;;44.75;31.83;;;13.60;56.00;;;;;;5056440;28;20047;-75
2023/04/06 10:58:08;;;;;;;41.28;30.23;;;13.60;55.30;;;;;;5067581;28;20151;-74
2023/04/06 11:00:35;;;;;;;43.75;28.35;;;13.70;55.10;;;;;;5068231;28;20082;-74
2023/04/06 11:03:01;;;;;;;41.67;31.52;;;13.70;55.00;;;;;;5065895;28;20056;-73
2023/04/06 11:05:27;;;;;;;41.90;31.60;;;13.70;54.60;;;;;;5058534;28;20456;-74
2023/04/06 11:07:53;;;;;;;54.60;36.17;;;13.80;54.40;;;;;;5065818;28;20143;-75
2023/04/06 11:10:22;;;;;;;46.88;32.08;;;13.90;54.50;;;;;;5059075;28;20048;-74
2023/04/06 11:12:54;;;;;;;53.28;34.53;;;14.00;54.20;;;;;;5062650;28;20421;-74
2023/04/06 11:15:20;;;;;;;47.20;32.75;;;14.10;53.90;;;;;;5066940;28;20048;-74
2023/04/06 11:17:46;;;;;;;50.83;34.45;;;14.00;53.90;;;;;;5062587;28;20078;-73
2023/04/06 11:20:12;;;;;;;46.58;34.47;;;14.10;54.10;;;;;;5068695;28;20052;-74
2023/04/06 11:22:48;;;;;;;45.33;33.72;;;14.10;54.20;;;;;;5067196;28;20037;-74
2023/04/06 11:25:16;;;;;;;46.75;34.75;;;14.00;53.90;;;;;;5058407;28;20094;-74
2023/04/06 11:27:43;;;;;;;41.97;30.93;;;14.00;54.20;;;;;;5066313;28;20112;-75
2023/04/06 11:30:09;;;;;;;46.45;34.42;;;14.10;54.60;;;;;;5062580;28;20052;-73
2023/04/06 11:32:45;;;;;;;55.17;35.45;;;14.20;55.20;;;;;;5063397;28;20513;-75
2023/04/06 11:35:24;;;;;;;47.08;35.10;;;14.50;55.50;;;;;;5066045;28;21241;-75
2023/04/06 11:37:50;;;;;;;47.63;35.60;;;14.60;54.70;;;;;;5063398;28;20051;-75
2023/04/06 11:40:24;;;;;;;50.92;34.38;;;14.50;53.10;;;;;;5068683;28;20063;-75
2023/04/06 11:42:53;;;;;;;49.15;35.03;;;14.50;52.70;;;;;;5056805;28;20052;-75
2023/04/06 11:45:19;;;;;;;61.28;36.10;;;14.50;52.80;;;;;;5063970;28;20124;-75
2023/04/06 11:47:45;;;;;;;56.35;38.05;;;14.60;53.80;;;;;;5059982;28;20406;-73
2023/04/06 11:50:13;;;;;;;57.47;37.55;;;14.70;53.30;;;;;;5057502;28;20071;-75
2023/04/06 11:52:40;;;;;;;63.75;38.33;;;14.70;53.40;;;;;;5061373;28;20117;-75
2023/04/06 11:55:18;;;;;;;51.90;37.90;;;14.70;52.60;;;;;;5064480;28;20053;-74
2023/04/06 11:57:44;;;;;;;52.58;36.55;;;14.70;52.00;;;;;;5066860;28;20440;-74
2023/04/06 12:00:11;;;;;;;56.50;36.63;;;14.70;52.60;;;;;;5062444;28;20049;-75
2023/04/06 12:02:38;;;;;;;50.08;35.25;;;14.70;51.90;;;;;;5064157;28;20079;-75
2023/04/06 12:05:06;;;;;;;55.17;36.28;;;14.60;51.90;;;;;;5061336;28;20071;-75
2023/04/06 12:07:32;;;;;;;52.83;37.92;;;14.50;52.00;;;;;;5060018;28;20803;-75
2023/04/06 12:09:59;;;;;;;50.30;36.92;;;14.50;52.80;;;;;;5042682;28;20135;-75
2023/04/06 12:12:25;;;;;;;56.65;36.80;;;14.50;53.00;;;;;;5066597;28;20052;-75
2023/04/06 12:14:52;;;;;;;59.95;39.03;;;14.50;53.30;;;;;;5062641;28;20163;-75
2023/04/06 12:17:19;;;;;;;53.42;39.38;;;14.60;53.70;;;;;;5060079;28;20136;-75
2023/04/06 12:19:45;;;;;;;65.43;41.47;;;14.60;53.20;;;;;;5063392;28;20052;-75
2023/04/06 12:22:10;;;;;;;59.17;39.63;;;14.50;52.80;;;;;;5058050;28;20470;-75
2023/04/06 12:24:36;;;;;;;60.47;40.17;;;14.40;52.80;;;;;;5055239;28;20055;-75
2023/04/06 12:27:02;;;;;;;51.10;37.40;;;14.30;52.40;;;;;;5055781;28;20406;-75
2023/04/06 12:29:27;;;;;;;55.53;37.97;;;14.30;52.60;;;;;;5061705;28;20071;-75
2023/04/06 12:31:53;;;;;;;64.15;38.33;;;14.20;52.50;;;;;;5064825;28;20045;-75